createdAt,value
2018-02-01T00:01:44.346Z,1.00
2018-02-01T00:04:13.447Z,1.00
2018-02-01T00:06:42.518Z,1.00
2018-02-01T00:09:11.609Z,0.90
2018-02-01T00:11:40.701Z,0.87
2018-02-01T00:14:09.793Z,0.90
2018-02-01T00:16:38.870Z,1.00
2018-02-01T00:19:08.718Z,0.90
2018-02-01T00:21:37.815Z,1.10
2018-02-01T00:24:06.906Z,1.17
2018-02-01T00:26:36.004Z,1.00
2018-02-01T00:29:05.061Z,0.90
2018-02-01T00:31:34.926Z,1.00
2018-02-01T00:34:04.045Z,0.90
2018-02-01T00:36:33.105Z,1.10
2018-02-01T00:39:02.202Z,1.00
2018-02-01T00:41:31.275Z,0.93
2018-02-01T00:44:00.382Z,1.00
2018-02-01T00:46:29.457Z,1.03
2018-02-01T00:48:59.347Z,1.20
2018-02-01T00:51:29.212Z,1.30
2018-02-01T00:53:59.217Z,1.53
2018-02-01T00:56:28.317Z,1.20
2018-02-01T00:58:57.428Z,1.10
2018-02-01T01:01:26.485Z,1.10
2018-02-01T01:03:55.580Z,1.03
2018-02-01T01:06:25.417Z,0.93
2018-02-01T01:08:54.522Z,1.10
2018-02-01T01:11:23.626Z,1.00
2018-02-01T01:13:52.725Z,1.10
2018-02-01T01:16:21.778Z,1.00
2018-02-01T01:18:50.853Z,1.10
2018-02-01T01:21:20.725Z,1.27
2018-02-01T01:23:49.806Z,0.83
2018-02-01T01:26:18.905Z,1.10
2018-02-01T01:28:47.970Z,1.00
2018-02-01T01:31:17.073Z,0.90
2018-02-01T01:33:46.147Z,1.10
2018-02-01T01:36:16.005Z,1.10
2018-02-01T01:38:45.858Z,1.00
2018-02-01T01:41:14.972Z,1.10
2018-02-01T01:43:44.803Z,1.07
2018-02-01T01:46:13.894Z,1.00
2018-02-01T01:48:43.734Z,1.30
2018-02-01T01:51:12.819Z,0.90
2018-02-01T01:53:41.893Z,1.00
2018-02-01T01:56:11.750Z,1.20
2018-02-01T01:58:40.854Z,0.97
2018-02-01T02:01:10.712Z,1.07
2018-02-01T02:03:39.793Z,1.10
2018-02-01T02:06:08.861Z,1.00
2018-02-01T02:08:37.961Z,1.17
2018-02-01T02:11:07.045Z,0.90
2018-02-01T02:13:36.146Z,1.30
2018-02-01T02:16:05.209Z,1.47
2018-02-01T02:18:34.304Z,1.20
2018-02-01T02:21:03.374Z,1.03
2018-02-01T02:23:33.227Z,1.17
2018-02-01T02:26:02.334Z,1.10
2018-02-01T02:28:31.410Z,1.13
2018-02-01T02:31:00.501Z,1.10
2018-02-01T02:33:29.579Z,1.57
2018-02-01T02:35:58.670Z,1.50
2018-02-01T02:38:28.509Z,1.10
2018-02-01T02:40:57.607Z,1.20
2018-02-01T02:43:26.692Z,1.60
2018-02-01T02:45:55.782Z,1.50
2018-02-01T02:48:24.858Z,1.50
2018-02-01T02:50:54.709Z,1.37
2018-02-01T02:53:23.785Z,1.13
2018-02-01T02:55:52.885Z,1.40
2018-02-01T02:58:21.977Z,1.13
2018-02-01T03:00:51.055Z,1.40
2018-02-01T03:03:20.919Z,1.43
2018-02-01T03:05:49.991Z,1.70
2018-02-01T03:08:19.085Z,1.50
2018-02-01T03:10:48.198Z,1.33
2018-02-01T03:13:17.281Z,1.20
2018-02-01T03:15:46.360Z,1.17
2018-02-01T03:18:15.492Z,1.03
2018-02-01T03:20:44.575Z,1.23
2018-02-01T03:23:13.671Z,1.13
2018-02-01T03:25:42.737Z,1.20
2018-02-01T03:28:12.593Z,1.07
2018-02-01T03:30:41.668Z,1.00
2018-02-01T03:33:10.753Z,1.20
2018-02-01T03:35:39.860Z,1.17
2018-02-01T03:38:08.951Z,1.10
2018-02-01T03:40:38.034Z,1.03
2018-02-01T03:43:07.107Z,1.07
2018-02-01T03:45:36.195Z,1.00
2018-02-01T03:48:05.269Z,1.40
2018-02-01T03:50:34.362Z,1.07
2018-02-01T03:53:03.430Z,1.30
2018-02-01T03:55:32.521Z,1.20
2018-02-01T03:58:01.623Z,1.30
2018-02-01T04:00:31.486Z,1.00
2018-02-01T04:03:02.066Z,1.10
2018-02-01T04:05:31.373Z,1.20
2018-02-01T04:08:00.453Z,1.40
2018-02-01T04:10:29.561Z,1.10
2018-02-01T04:12:58.725Z,1.10
2018-02-01T04:15:28.559Z,1.47
2018-02-01T04:17:57.644Z,1.10
2018-02-01T04:20:26.738Z,1.30
2018-02-01T04:22:56.669Z,1.40
2018-02-01T04:25:26.650Z,1.33
2018-02-01T04:27:56.502Z,1.40
2018-02-01T04:30:25.575Z,1.33
2018-02-01T04:32:55.443Z,1.33
2018-02-01T04:35:24.518Z,1.40
2018-02-01T04:37:53.586Z,1.20
2018-02-01T04:40:22.676Z,1.40
2018-02-01T04:42:51.777Z,1.10
2018-02-01T04:45:21.617Z,1.77
2018-02-01T04:47:50.725Z,1.40
2018-02-01T04:50:20.588Z,1.50
2018-02-01T04:52:49.691Z,1.03
2018-02-01T04:55:18.791Z,1.50
2018-02-01T04:57:48.640Z,1.40
2018-02-01T05:00:17.717Z,1.53
2018-02-01T05:02:46.822Z,1.50
2018-02-01T05:05:16.661Z,1.33
2018-02-01T05:07:45.753Z,1.50
2018-02-01T05:10:14.874Z,1.77
2018-02-01T05:12:43.981Z,1.60
2018-02-01T05:15:13.815Z,2.00
2018-02-01T05:17:42.914Z,1.80
2018-02-01T05:20:12.004Z,1.60
2018-02-01T05:22:41.125Z,1.67
2018-02-01T05:25:10.947Z,2.03
2018-02-01T05:27:40.834Z,1.80
2018-02-01T05:30:10.671Z,2.80
2018-02-01T05:32:39.965Z,2.97
2018-02-01T05:35:09.070Z,4.07
2018-02-01T05:37:38.920Z,2.07
2018-02-01T05:40:08.182Z,1.93
2018-02-01T05:42:37.921Z,2.03
2018-02-01T05:45:07.007Z,2.30
2018-02-01T05:47:36.077Z,2.50
2018-02-01T05:50:05.161Z,2.70
2018-02-01T05:52:34.249Z,3.60
2018-02-01T05:55:03.338Z,3.40
2018-02-01T05:57:32.448Z,3.17
2018-02-01T06:00:01.521Z,3.00
2018-02-01T06:02:31.382Z,4.00
2018-02-01T06:05:00.464Z,3.27
2018-02-01T06:07:30.327Z,2.40
2018-02-01T06:10:00.177Z,1.93
2018-02-01T06:12:29.264Z,2.37
2018-02-01T06:14:58.351Z,1.60
2018-02-01T06:17:28.218Z,1.80
2018-02-01T06:19:57.290Z,1.63
2018-02-01T06:22:26.389Z,1.87
2018-02-01T06:24:55.470Z,1.87
2018-02-01T06:27:24.578Z,1.80
2018-02-01T06:29:53.648Z,3.10
2018-02-01T06:32:22.755Z,1.70
2018-02-01T06:34:51.835Z,1.90
2018-02-01T06:37:20.910Z,2.40
2018-02-01T06:39:50.768Z,2.10
2018-02-01T06:42:19.854Z,1.80
2018-02-01T06:44:48.941Z,1.50
2018-02-01T06:47:18.018Z,1.33
2018-02-01T06:49:47.900Z,1.60
2018-02-01T06:52:16.973Z,1.97
2018-02-01T06:54:46.065Z,1.50
2018-02-01T06:57:15.133Z,1.70
2018-02-01T06:59:44.225Z,1.50
2018-02-01T07:02:13.321Z,1.70
2018-02-01T07:04:42.413Z,1.33
2018-02-01T07:07:12.269Z,1.40
2018-02-01T07:09:41.366Z,1.70
2018-02-01T07:12:11.221Z,1.40
2018-02-01T07:14:40.316Z,1.60
2018-02-01T07:17:09.404Z,1.70
2018-02-01T07:19:38.606Z,2.00
2018-02-01T07:22:08.480Z,2.10
2018-02-01T07:24:37.542Z,2.23
2018-02-01T07:27:06.638Z,2.83
2018-02-01T07:29:35.732Z,4.90
2018-02-01T07:32:04.829Z,7.93
2018-02-01T07:34:33.925Z,5.40
2018-02-01T07:37:03.017Z,5.17
2018-02-01T07:39:32.889Z,3.37
2018-02-01T07:42:01.962Z,2.93
2018-02-01T07:44:31.046Z,2.43
2018-02-01T07:47:03.447Z,2.03
2018-02-01T07:49:32.525Z,2.03
2018-02-01T07:52:01.753Z,2.50
2018-02-01T07:54:30.821Z,1.90
2018-02-01T07:56:59.914Z,1.83
2018-02-01T07:59:28.989Z,1.80
2018-02-01T08:01:58.105Z,1.97
2018-02-01T08:04:27.174Z,1.70
2018-02-01T08:06:56.475Z,1.83
2018-02-01T08:09:26.319Z,2.00
2018-02-01T08:11:55.415Z,1.70
2018-02-01T08:14:24.552Z,2.07
2018-02-01T08:16:53.658Z,2.07
2018-02-01T08:19:23.786Z,1.60
2018-02-01T08:21:52.888Z,2.20
2018-02-01T08:24:22.715Z,2.17
2018-02-01T08:26:51.808Z,2.60
2018-02-01T08:29:20.879Z,2.67
2018-02-01T08:31:50.749Z,2.07
2018-02-01T08:34:19.833Z,1.97
2018-02-01T08:36:48.924Z,1.90
2018-02-01T08:39:18.018Z,2.37
2018-02-01T08:41:47.104Z,1.63
2018-02-01T08:44:16.193Z,2.23
2018-02-01T08:46:45.363Z,2.10
2018-02-01T08:49:15.206Z,1.40
2018-02-01T08:51:44.344Z,1.97
2018-02-01T08:54:13.416Z,2.10
2018-02-01T08:56:42.486Z,2.57
2018-02-01T08:59:11.598Z,1.97
2018-02-01T09:01:40.670Z,1.40
2018-02-01T09:04:10.518Z,1.73
2018-02-01T09:06:39.619Z,1.23
2018-02-01T09:09:08.698Z,1.70
2018-02-01T09:11:37.804Z,2.20
2018-02-01T09:14:06.957Z,1.63
2018-02-01T09:16:36.823Z,1.60
2018-02-01T09:19:05.893Z,2.20
2018-02-01T09:21:34.995Z,2.13
2018-02-01T09:24:04.110Z,2.13
2018-02-01T09:26:33.210Z,2.23
2018-02-01T09:29:02.285Z,2.20
2018-02-01T09:31:31.368Z,2.37
2018-02-01T09:34:00.465Z,2.10
2018-02-01T09:36:30.310Z,2.20
2018-02-01T09:38:59.391Z,2.10
2018-02-01T09:41:28.481Z,2.80
2018-02-01T09:43:58.327Z,2.33
2018-02-01T09:46:27.427Z,1.93
2018-02-01T09:48:56.520Z,2.60
2018-02-01T09:51:26.513Z,1.97
2018-02-01T09:53:55.689Z,2.70
2018-02-01T09:56:24.759Z,1.87
2018-02-01T09:58:54.621Z,2.70
2018-02-01T10:01:23.732Z,2.20
2018-02-01T10:03:52.829Z,2.63
2018-02-01T10:06:21.944Z,2.63
2018-02-01T10:08:51.017Z,2.57
2018-02-01T10:11:20.119Z,2.50
2018-02-01T10:13:50.015Z,2.70
2018-02-01T10:16:19.103Z,3.30
2018-02-01T10:18:48.199Z,2.20
2018-02-01T10:21:17.498Z,2.30
2018-02-01T10:23:46.573Z,2.60
2018-02-01T10:26:15.675Z,2.10
2018-02-01T10:28:44.778Z,2.47
2018-02-01T10:31:13.854Z,2.20
2018-02-01T10:33:42.950Z,2.20
2018-02-01T10:36:12.030Z,2.90
2018-02-01T10:38:41.900Z,2.77
2018-02-01T10:41:11.748Z,3.00
2018-02-01T10:43:41.614Z,2.30
2018-02-01T10:46:10.693Z,2.00
2018-02-01T10:48:39.805Z,2.60
2018-02-01T10:51:08.915Z,2.00
2018-02-01T10:53:38.021Z,2.10
2018-02-01T10:56:07.930Z,2.77
2018-02-01T10:58:36.998Z,1.97
2018-02-01T11:01:06.097Z,2.37
2018-02-01T11:03:35.182Z,1.73
2018-02-01T11:06:04.279Z,1.97
2018-02-01T11:08:33.350Z,2.00
2018-02-01T11:11:02.455Z,2.20
2018-02-01T11:13:32.301Z,1.90
2018-02-01T11:16:01.388Z,1.90
2018-02-01T11:18:30.478Z,2.30
2018-02-01T11:20:59.567Z,1.83
2018-02-01T11:23:28.638Z,1.97
2018-02-01T11:25:58.493Z,2.20
2018-02-01T11:28:27.585Z,2.10
2018-02-01T11:30:57.486Z,1.80
2018-02-01T11:33:27.361Z,1.83
2018-02-01T11:35:56.463Z,1.90
2018-02-01T11:38:26.316Z,2.47
2018-02-01T11:40:55.431Z,2.10
2018-02-01T11:43:24.491Z,2.47
2018-02-01T11:45:53.608Z,2.00
2018-02-01T11:48:23.443Z,1.87
2018-02-01T11:50:52.568Z,2.00
2018-02-01T11:53:21.673Z,2.27
2018-02-01T11:55:50.770Z,2.40
2018-02-01T11:58:20.631Z,2.20
2018-02-01T12:00:49.761Z,2.27
2018-02-01T12:03:19.341Z,2.97
2018-02-01T12:05:48.436Z,1.97
2018-02-01T12:08:17.534Z,2.07
2018-02-01T12:10:46.619Z,2.30
2018-02-01T12:13:16.490Z,2.00
2018-02-01T12:15:46.333Z,2.20
2018-02-01T12:18:15.416Z,2.73
2018-02-01T12:20:44.521Z,2.20
2018-02-01T12:23:13.610Z,4.60
2018-02-01T12:25:58.205Z,2.20
2018-02-01T12:28:27.295Z,1.77
2018-02-01T12:30:56.378Z,1.90
2018-02-01T12:33:25.482Z,1.73
2018-02-01T12:35:54.696Z,2.03
2018-02-01T12:38:23.787Z,2.97
2018-02-01T12:40:52.886Z,1.90
2018-02-01T12:43:21.978Z,2.50
2018-02-01T12:45:51.073Z,2.43
2018-02-01T12:48:20.960Z,2.37
2018-02-01T12:50:51.725Z,2.40
2018-02-01T12:53:20.826Z,2.40
2018-02-01T12:55:50.590Z,4.23
2018-02-01T12:58:20.460Z,2.10
2018-02-01T13:00:49.559Z,2.50
2018-02-01T13:03:18.667Z,1.73
2018-02-01T13:05:47.749Z,2.10
2018-02-01T13:08:16.864Z,2.23
2018-02-01T13:10:45.948Z,2.37
2018-02-01T13:13:16.526Z,1.80
2018-02-01T13:15:45.641Z,1.90
2018-02-01T13:18:14.743Z,2.00
2018-02-01T13:20:43.838Z,1.70
2018-02-01T13:23:12.943Z,2.03
2018-02-01T13:25:50.529Z,1.97
2018-02-01T13:28:39.994Z,2.23
2018-02-01T13:34:39.986Z,1.90
2018-02-01T13:40:33.617Z,2.00
2018-02-01T13:49:51.394Z,2.20
2018-02-01T13:52:20.472Z,2.00
2018-02-01T13:54:50.346Z,2.10
2018-02-01T13:57:22.281Z,2.17
2018-02-01T13:59:55.357Z,2.77
2018-02-01T14:02:24.498Z,2.40
2018-02-01T14:04:53.590Z,2.93
2018-02-01T14:07:22.687Z,2.33
2018-02-01T14:09:51.801Z,5.30
2018-02-01T14:12:21.672Z,2.90
2018-02-01T14:14:50.767Z,2.53
2018-02-01T14:17:20.631Z,3.30
2018-02-01T14:19:50.497Z,2.33
2018-02-01T14:22:19.608Z,5.10
2018-02-01T14:24:48.680Z,3.30
2018-02-01T14:27:17.794Z,2.37
2018-02-01T14:29:46.881Z,2.73
2018-02-01T14:32:15.982Z,2.80
2018-02-01T14:34:45.059Z,1.87
2018-02-01T14:37:14.161Z,1.77
2018-02-01T14:39:43.250Z,1.37
2018-02-01T14:42:12.325Z,1.90
2018-02-01T14:44:41.415Z,1.87
2018-02-01T14:47:11.336Z,1.50
2018-02-01T14:49:40.440Z,1.70
2018-02-01T14:52:09.543Z,1.47
2018-02-01T14:54:38.945Z,1.73
2018-02-01T14:57:08.044Z,2.70
2018-02-01T14:59:37.572Z,4.57
2018-02-01T15:02:06.666Z,2.93
2018-02-01T15:04:35.782Z,2.30
2018-02-01T15:07:04.879Z,2.67
2018-02-01T15:09:33.980Z,3.50
2018-02-01T15:12:03.074Z,5.77
2018-02-01T15:14:32.179Z,10.33
2018-02-01T15:17:01.268Z,6.20
2018-02-01T15:19:30.399Z,4.67
2018-02-01T15:22:00.275Z,2.50
2018-02-01T15:24:29.353Z,3.40
2018-02-01T15:26:58.459Z,3.80
2018-02-01T15:29:28.157Z,4.73
2018-02-01T15:31:57.263Z,3.50
2018-02-01T15:34:27.128Z,3.93
2018-02-01T15:36:56.986Z,4.17
2018-02-01T15:39:26.073Z,2.83
2018-02-01T15:41:55.189Z,2.50
2018-02-01T15:44:25.785Z,3.07
2018-02-01T15:46:54.885Z,4.30
2018-02-01T15:49:23.956Z,3.40
2018-02-01T15:51:53.062Z,5.23
2018-02-01T15:54:22.158Z,8.93
2018-02-01T15:56:51.256Z,4.97
2018-02-01T15:59:20.337Z,3.33
2018-02-01T16:01:49.458Z,4.50
2018-02-01T16:04:18.528Z,3.83
2018-02-01T16:06:47.626Z,4.47
2018-02-01T16:09:16.775Z,5.00
2018-02-01T16:11:45.868Z,6.30
2018-02-01T16:14:15.001Z,6.90
2018-02-01T16:16:45.783Z,6.50
2018-02-01T16:19:14.889Z,5.67
2018-02-01T16:21:43.980Z,5.00
2018-02-01T16:24:13.089Z,5.80
2018-02-01T16:26:42.195Z,5.00
2018-02-01T16:29:11.302Z,9.30
2018-02-01T16:31:41.161Z,7.40
2018-02-01T16:34:10.292Z,6.03
2018-02-01T16:36:39.393Z,5.33
2018-02-01T16:39:08.482Z,4.30
2018-02-01T16:41:37.597Z,3.80
2018-02-01T16:44:06.701Z,4.20
2018-02-01T16:46:36.606Z,5.07
2018-02-01T16:49:05.720Z,6.50
2018-02-01T16:51:35.595Z,8.17
2018-02-01T16:54:04.682Z,7.03
2018-02-01T16:56:33.824Z,7.80
2018-02-01T16:59:03.699Z,6.90
2018-02-01T17:01:32.844Z,6.10
2018-02-01T17:04:01.886Z,4.20
2018-02-01T17:06:31.014Z,4.00
2018-02-01T17:09:01.545Z,4.50
2018-02-01T17:11:30.654Z,4.63
2018-02-01T17:14:00.535Z,4.40
2018-02-01T17:16:29.628Z,4.67
2018-02-01T17:18:58.747Z,4.60
2018-02-01T17:21:28.622Z,5.17
2018-02-01T17:23:57.725Z,7.07
2018-02-01T17:26:26.851Z,7.30
2018-02-01T17:28:55.969Z,6.93
2018-02-01T17:31:25.817Z,7.20
2018-02-01T17:33:54.949Z,15.60
2018-02-01T17:36:24.053Z,10.23
2018-02-01T17:38:53.166Z,9.10
2018-02-01T17:41:23.037Z,9.53
2018-02-01T17:43:52.162Z,10.07
2018-02-01T17:46:22.641Z,10.80
2018-02-01T17:48:51.771Z,4.00
2018-02-01T17:51:20.863Z,5.07
2018-02-01T17:53:49.972Z,5.03
2018-02-01T17:56:19.085Z,4.20
2018-02-01T17:58:48.984Z,3.57
2018-02-01T18:01:18.103Z,3.80
2018-02-01T18:03:47.971Z,2.50
2018-02-01T18:06:17.047Z,3.10
2018-02-01T18:08:46.147Z,4.80
2018-02-01T18:11:15.255Z,4.50
2018-02-01T18:13:45.264Z,3.90
2018-02-01T18:16:15.220Z,4.03
2018-02-01T18:18:48.192Z,5.20
2018-02-01T18:21:17.292Z,5.47
2018-02-01T18:23:47.178Z,4.73
2018-02-01T18:26:20.628Z,5.40
2018-02-01T18:28:55.803Z,5.67
2018-02-01T18:31:24.885Z,5.00
2018-02-01T18:33:54.001Z,4.77
2018-02-01T18:36:23.167Z,5.80
2018-02-01T18:38:53.026Z,3.40
2018-02-01T18:41:22.103Z,3.40
2018-02-01T18:43:51.213Z,2.57
2018-02-01T18:46:21.078Z,3.53
2018-02-01T18:48:51.113Z,5.50
2018-02-01T18:51:22.520Z,4.00
2018-02-01T18:53:53.042Z,4.40
2018-02-01T18:56:22.171Z,4.57
2018-02-01T18:58:52.021Z,4.10
2018-02-01T19:01:21.908Z,5.10
2018-02-01T19:03:52.047Z,4.30
2018-02-01T19:06:21.841Z,4.07
2018-02-01T19:08:51.528Z,3.10
2018-02-01T19:11:20.651Z,3.03
2018-02-01T19:13:51.152Z,3.53
2018-02-01T19:16:20.244Z,4.20
2018-02-01T19:21:39.331Z,3.53
2018-02-01T19:24:09.269Z,2.77
2018-02-01T19:26:38.662Z,3.07
2018-02-01T19:29:08.555Z,2.80
2018-02-01T19:31:37.671Z,3.50
2018-02-01T19:34:07.554Z,3.10
2018-02-01T19:36:36.674Z,2.97
2018-02-01T19:39:07.944Z,3.67
2018-02-01T19:41:37.131Z,2.43
2018-02-01T19:44:07.833Z,3.27
2018-02-01T19:46:36.954Z,3.17
2018-02-01T19:49:08.402Z,3.43
2018-02-01T19:51:37.512Z,3.63
2018-02-01T19:54:07.386Z,3.60
2018-02-01T19:56:36.501Z,3.80
2018-02-01T19:59:05.623Z,3.87
2018-02-01T20:01:35.471Z,3.47
2018-02-01T20:04:04.606Z,3.50
2018-02-01T20:06:33.694Z,4.20
2018-02-01T20:09:02.827Z,5.17
2018-02-01T20:11:31.921Z,3.57
2018-02-01T20:14:01.824Z,3.33
2018-02-01T20:16:31.692Z,3.00
2018-02-01T20:19:00.819Z,3.10
2018-02-01T20:21:29.937Z,4.40
2018-02-01T20:23:59.810Z,3.90
2018-02-01T20:26:28.960Z,4.27
2018-02-01T20:28:58.081Z,3.57
2018-02-01T20:31:27.184Z,3.90
2018-02-01T20:33:57.174Z,5.53
2018-02-01T20:36:27.071Z,3.50
2018-02-01T20:38:56.942Z,4.07
2018-02-01T20:41:26.049Z,4.97
2018-02-01T20:43:55.217Z,3.50
2018-02-01T20:46:24.318Z,3.53
2018-02-01T20:48:53.456Z,2.53
2018-02-01T20:51:23.328Z,2.60
2018-02-01T20:53:53.207Z,3.10
2018-02-01T20:56:23.112Z,3.80
2018-02-01T20:58:52.982Z,5.17
2018-02-01T21:01:22.082Z,5.30
2018-02-01T21:03:51.150Z,6.00
2018-02-01T21:06:21.022Z,4.80
2018-02-01T21:08:51.856Z,4.13
2018-02-01T21:11:20.902Z,3.57
2018-02-01T21:13:50.008Z,4.97
2018-02-01T21:16:19.110Z,4.47
2018-02-01T21:18:48.205Z,3.60
2018-02-01T21:21:17.328Z,3.20
2018-02-01T21:23:46.394Z,3.10
2018-02-01T21:26:15.522Z,2.97
2018-02-01T21:28:45.375Z,3.40
2018-02-01T21:31:14.499Z,4.97
2018-02-01T21:33:43.581Z,3.50
2018-02-01T21:36:12.688Z,3.50
2018-02-01T21:38:41.812Z,3.43
2018-02-01T21:41:11.700Z,3.63
2018-02-01T21:43:40.835Z,4.10
2018-02-01T21:46:10.691Z,5.50
2018-02-01T21:48:39.820Z,4.87
2018-02-01T21:51:08.943Z,6.43
2018-02-01T21:53:38.816Z,4.70
2018-02-01T21:56:07.891Z,3.97
2018-02-01T21:58:37.835Z,4.30
2018-02-01T22:01:06.910Z,4.70
2018-02-01T22:03:36.002Z,5.03
2018-02-01T22:06:05.182Z,4.70
2018-02-01T22:08:34.579Z,5.40
2018-02-01T22:11:03.719Z,4.50
2018-02-01T22:13:32.818Z,3.90
2018-02-01T22:16:01.909Z,4.80
2018-02-01T22:18:31.019Z,4.00
2018-02-01T22:21:00.108Z,4.00
2018-02-01T22:23:29.213Z,4.30
2018-02-01T22:25:58.322Z,4.97
2018-02-01T22:28:28.172Z,4.33
2018-02-01T22:30:57.276Z,4.13
2018-02-01T22:33:26.872Z,5.60
2018-02-01T22:35:55.984Z,4.40
2018-02-01T22:38:25.077Z,4.33
2018-02-01T22:40:54.181Z,5.10
2018-02-01T22:43:23.250Z,4.10
2018-02-01T22:45:52.362Z,5.07
2018-02-01T22:48:21.472Z,5.47
2018-02-01T22:50:51.359Z,4.43
2018-02-01T22:53:20.418Z,5.03
2018-02-01T22:55:50.292Z,3.67
2018-02-01T22:58:19.383Z,4.87
2018-02-01T23:00:48.529Z,5.03
2018-02-01T23:03:17.597Z,4.90
2018-02-01T23:05:46.682Z,4.10
2018-02-01T23:08:15.773Z,4.50
2018-02-01T23:10:44.882Z,5.63
2018-02-01T23:13:13.977Z,4.87
2018-02-01T23:15:43.061Z,4.30
2018-02-01T23:18:12.152Z,5.43
2018-02-01T23:20:41.241Z,4.80
2018-02-01T23:23:10.326Z,4.47
2018-02-01T23:25:39.411Z,4.40
2018-02-01T23:28:09.349Z,4.93
2018-02-01T23:30:38.476Z,5.03
2018-02-01T23:33:07.593Z,5.10
2018-02-01T23:35:36.661Z,4.67
2018-02-01T23:38:05.767Z,5.80
2018-02-01T23:40:34.866Z,4.77
2018-02-01T23:43:04.710Z,5.17
2018-02-01T23:45:33.794Z,4.43
2018-02-01T23:48:03.673Z,5.00
2018-02-01T23:50:32.775Z,6.60
2018-02-01T23:53:01.870Z,6.43
2018-02-01T23:55:30.947Z,5.80
2018-02-01T23:58:00.126Z,5.57
